Time;durP1;ratioP1;P1;durP2;ratioP2;P2;SDS_P1;SDS_P2;PMS_P1;PMS_P2;Temp;Humidity;BMP_temperature;BMP_pressure;BME280_temperature;BME280_humidity;BME280_pressure;Samples;Min_cycle;Max_cycle;Signal;HPM_P1;HPM_P2
2022/05/17 00:00:28;;;;;;;;;;;13.60;99.90;;;;;;5085001;28;19930;-65
2022/05/17 00:02:54;;;;;;;;;;;13.60;99.90;;;;;;5075128;28;20011;-65
2022/05/17 00:05:19;;;;;;;;;;;13.80;99.90;;;;;;5082206;28;19924;-65
2022/05/17 00:07:45;;;;;;;;;;;13.40;99.90;;;;;;5070410;28;19934;-65
2022/05/17 00:10:11;;;;;;;;;;;13.40;99.90;;;;;;5077301;28;20371;-64
2022/05/17 00:12:37;;;;;;;;;;;13.50;99.90;;;;;;5075190;28;19982;-64
2022/05/17 00:15:03;;;;;;;;;;;13.60;99.90;;;;;;5071718;28;19928;-65
2022/05/17 00:17:28;;;;;;;;;;;13.50;99.90;;;;;;5079698;28;19924;-65
2022/05/17 00:19:54;;;;;;;;;;;13.30;99.90;;;;;;5069382;28;20481;-65
2022/05/17 00:22:19;;;;;;;;;;;13.50;99.90;;;;;;5075431;28;19924;-65
2022/05/17 00:24:45;;;;;;;;;;;13.20;99.90;;;;;;5077012;28;19924;-65
2022/05/17 00:27:10;;;;;;;;;;;13.20;99.90;;;;;;5083289;28;19920;-65
2022/05/17 00:29:36;;;;;;;;;;;13.30;99.90;;;;;;5083122;28;20298;-65
2022/05/17 00:32:01;;;;;;;;;;;13.50;99.90;;;;;;5074624;28;19928;-64
2022/05/17 00:34:27;;;;;;;;;;;13.30;99.90;;;;;;5076638;28;19920;-65
2022/05/17 00:36:53;;;;;;;;;;;13.40;99.90;;;;;;5071427;28;19936;-65
2022/05/17 00:39:18;;;;;;;;;;;13.40;99.90;;;;;;5088648;28;19920;-65
2022/05/17 00:41:44;;;;;;;;;;;13.50;99.90;;;;;;5082784;28;19935;-65
2022/05/17 00:47:09;;;;;;;;;;;13.30;99.90;;;;;;5081503;28;20376;-65
2022/05/17 00:49:42;;;;;;;;;;;13.50;99.90;;;;;;5094624;28;20383;-65
2022/05/17 00:52:11;;;;;;;;;;;13.50;99.90;;;;;;5087441;28;19981;-65
2022/05/17 00:54:37;;;;;;;;;;;13.50;99.90;;;;;;5092743;28;19924;-65
2022/05/17 00:57:05;;;;;;;;;;;13.40;99.90;;;;;;5075757;28;19936;-65
2022/05/17 00:59:31;;;;;;;;;;;13.50;99.90;;;;;;5089506;28;20015;-65
2022/05/17 01:01:57;;;;;;;;;;;13.50;99.90;;;;;;5079584;28;19998;-65
2022/05/17 01:04:23;;;;;;;;;;;13.30;99.90;;;;;;5081583;28;20639;-65
2022/05/17 01:06:51;;;;;;;;;;;13.30;99.90;;;;;;5086892;28;19921;-65
2022/05/17 01:09:18;;;;;;;;;;;13.40;99.90;;;;;;5082985;28;19966;-65
2022/05/17 01:11:43;;;;;;;;;;;13.40;99.90;;;;;;5092471;28;20027;-65
2022/05/17 01:16:54;;;;;;;;;;;13.30;99.90;;;;;;5088043;28;19932;-65
2022/05/17 01:19:20;;;;;;;;;;;13.50;99.90;;;;;;5091625;28;19920;-65
2022/05/17 01:21:45;;;;;;;;;;;13.50;99.90;;;;;;5089004;28;19959;-66
2022/05/17 01:24:11;;;;;;;;;;;13.20;99.90;;;;;;5083566;28;19920;-65
2022/05/17 01:26:41;;;;;;;;;;;13.50;99.90;;;;;;5082782;28;19924;-65
2022/05/17 01:29:07;;;;;;;;;;;13.20;99.90;;;;;;5075732;28;19959;-65
2022/05/17 01:31:35;;;;;;;;;;;13.30;99.90;;;;;;5085979;28;19971;-65
2022/05/17 01:34:00;;;;;;;;;;;13.20;99.90;;;;;;5087949;28;19930;-65
2022/05/17 01:36:26;;;;;;;;;;;13.20;99.90;;;;;;5077819;28;20002;-65
2022/05/17 01:38:51;;;;;;;;;;;13.40;99.90;;;;;;5090222;28;19932;-65
2022/05/17 01:41:18;;;;;;;;;;;13.10;99.90;;;;;;5071724;28;19967;-65
2022/05/17 01:43:44;;;;;;;;;;;13.10;99.90;;;;;;5087719;28;19920;-64
2022/05/17 01:46:10;;;;;;;;;;;13.10;99.90;;;;;;5080689;28;20461;-65
2022/05/17 01:48:36;;;;;;;;;;;13.00;99.90;;;;;;5078179;28;19922;-64
2022/05/17 01:51:02;;;;;;;;;;;13.20;99.90;;;;;;5081401;28;20011;-64
2022/05/17 01:53:28;;;;;;;;;;;13.00;99.90;;;;;;5088930;28;19920;-65
2022/05/17 01:55:53;;;;;;;;;;;13.10;99.90;;;;;;5087773;28;19927;-65
2022/05/17 01:58:18;;;;;;;;;;;13.00;99.90;;;;;;5089639;28;20023;-65
2022/05/17 02:00:45;;;;;;;;;;;13.30;99.90;;;;;;5080865;28;20260;-64
2022/05/17 02:03:10;;;;;;;;;;;13.10;99.90;;;;;;5081606;28;20370;-65
2022/05/17 02:05:36;;;;;;;;;;;13.20;99.90;;;;;;5091148;28;19935;-65
2022/05/17 02:08:01;;;;;;;;;;;13.20;99.90;;;;;;5073701;28;19925;-65
2022/05/17 02:10:27;;;;;;;;;;;13.20;99.90;;;;;;5086047;28;19920;-65
2022/05/17 02:12:53;;;;;;;;;;;13.10;99.90;;;;;;5087009;28;20355;-64
2022/05/17 02:15:19;;;;;;;;;;;13.00;99.90;;;;;;5087093;28;19920;-65
2022/05/17 02:17:44;;;;;;;;;;;13.20;99.90;;;;;;5089101;28;19931;-65
2022/05/17 02:20:10;;;;;;;;;;;13.10;99.90;;;;;;5088970;28;20713;-65
2022/05/17 02:22:36;;;;;;;;;;;13.10;99.90;;;;;;5085162;28;19924;-65
2022/05/17 02:25:01;;;;;;;;;;;13.10;99.90;;;;;;5085325;28;19924;-65
2022/05/17 02:27:27;;;;;;;;;;;13.10;99.90;;;;;;5086086;28;20415;-64
2022/05/17 02:29:52;;;;;;;;;;;12.80;99.90;;;;;;5090162;28;19950;-65
2022/05/17 02:32:18;;;;;;;;;;;13.00;99.90;;;;;;5077287;28;20058;-65
2022/05/17 02:34:43;;;;;;;;;;;13.00;99.90;;;;;;5078423;28;20012;-65
2022/05/17 02:37:09;;;;;;;;;;;12.90;99.90;;;;;;5080723;28;19932;-65
2022/05/17 02:39:34;;;;;;;;;;;12.70;99.90;;;;;;5088526;28;19924;-66
2022/05/17 02:42:00;;;;;;;;;;;12.80;99.90;;;;;;5089934;28;19927;-65
2022/05/17 02:44:25;;;;;;;;;;;12.90;99.90;;;;;;5078773;28;19924;-65
2022/05/17 02:46:51;;;;;;;;;;;12.80;99.90;;;;;;5088932;28;19943;-64
2022/05/17 02:49:16;;;;;;;;;;;12.80;99.90;;;;;;5085055;28;19981;-65
2022/05/17 02:51:42;;;;;;;;;;;12.70;99.90;;;;;;5085836;28;19924;-65
2022/05/17 02:54:10;;;;;;;;;;;12.60;99.90;;;;;;5088511;28;19924;-65
2022/05/17 02:56:36;;;;;;;;;;;12.90;99.90;;;;;;5082811;28;20260;-64
2022/05/17 02:59:02;;;;;;;;;;;12.60;99.90;;;;;;5076950;28;19931;-65
2022/05/17 03:01:27;;;;;;;;;;;12.60;99.90;;;;;;5083187;28;19920;-65
2022/05/17 03:03:53;;;;;;;;;;;12.70;99.90;;;;;;5078573;28;20002;-65
2022/05/17 03:06:18;;;;;;;;;;;12.80;99.90;;;;;;5078965;28;20695;-64
2022/05/17 03:08:44;;;;;;;;;;;12.80;99.90;;;;;;5086131;28;19924;-65
2022/05/17 03:11:09;;;;;;;;;;;12.80;99.90;;;;;;5071355;28;20412;-65
2022/05/17 03:13:35;;;;;;;;;;;12.80;99.90;;;;;;5072265;28;19924;-65
2022/05/17 03:16:01;;;;;;;;;;;12.60;99.90;;;;;;5081969;28;20417;-65
2022/05/17 03:18:26;;;;;;;;;;;12.80;99.90;;;;;;5071828;28;19929;-64
2022/05/17 03:20:52;;;;;;;;;;;12.70;99.90;;;;;;5083549;28;19995;-65
2022/05/17 03:23:17;;;;;;;;;;;12.60;99.90;;;;;;5088671;28;20010;-65
2022/05/17 03:25:43;;;;;;;;;;;12.50;99.90;;;;;;5085465;28;19924;-65
2022/05/17 03:28:10;;;;;;;;;;;12.70;99.90;;;;;;5087242;28;20415;-65
2022/05/17 03:30:35;;;;;;;;;;;12.60;99.90;;;;;;5085174;28;19924;-65
2022/05/17 03:33:01;;;;;;;;;;;12.70;99.90;;;;;;5085963;28;19927;-65
2022/05/17 03:35:27;;;;;;;;;;;12.60;99.90;;;;;;5074026;28;19928;-65
2022/05/17 03:37:52;;;;;;;;;;;12.70;99.90;;;;;;5079748;28;20284;-65
2022/05/17 03:40:18;;;;;;;;;;;12.70;99.90;;;;;;5084683;28;19924;-66
2022/05/17 03:42:44;;;;;;;;;;;12.60;99.90;;;;;;5082344;28;19920;-65
2022/05/17 03:45:09;;;;;;;;;;;12.50;99.90;;;;;;5078304;28;19924;-66
2022/05/17 03:47:35;;;;;;;;;;;12.60;99.90;;;;;;5083847;28;19946;-64
2022/05/17 03:50:02;;;;;;;;;;;12.40;99.90;;;;;;5070792;28;19920;-66
2022/05/17 03:52:28;;;;;;;;;;;12.50;99.90;;;;;;5086356;28;19920;-66
2022/05/17 03:54:56;;;;;;;;;;;12.40;99.90;;;;;;5083024;28;19939;-66
2022/05/17 03:57:21;;;;;;;;;;;12.40;99.90;;;;;;5080864;28;19924;-66
2022/05/17 03:59:47;;;;;;;;;;;12.60;99.90;;;;;;5084419;28;20677;-65
2022/05/17 04:02:12;;;;;;;;;;;12.30;99.90;;;;;;5086695;28;19935;-66
2022/05/17 04:04:39;;;;;;;;;;;12.30;99.90;;;;;;5072475;28;19975;-65
2022/05/17 04:07:04;;;;;;;;;;;12.50;99.90;;;;;;5082176;28;19920;-66
2022/05/17 04:09:30;;;;;;;;;;;12.40;99.90;;;;;;5070157;28;19924;-66
2022/05/17 04:11:55;;;;;;;;;;;12.50;99.90;;;;;;5083995;28;19920;-65
2022/05/17 04:14:21;;;;;;;;;;;12.40;99.90;;;;;;5073727;28;20096;-65
2022/05/17 04:16:46;;;;;;;;;;;12.40;99.90;;;;;;5075491;28;19928;-65
2022/05/17 04:19:15;;;;;;;;;;;12.30;99.90;;;;;;5074888;28;19928;-66
2022/05/17 04:21:41;;;;;;;;;;;12.30;99.90;;;;;;5078730;28;19970;-65
2022/05/17 04:24:07;;;;;;;;;;;12.40;99.90;;;;;;5072197;28;19965;-65
2022/05/17 04:26:32;;;;;;;;;;;12.60;99.90;;;;;;5080021;28;20003;-66
2022/05/17 04:28:58;;;;;;;;;;;12.50;99.90;;;;;;5084240;28;20372;-65
2022/05/17 04:31:23;;;;;;;;;;;12.80;99.90;;;;;;5079742;28;19969;-66
2022/05/17 04:33:50;;;;;;;;;;;12.70;99.90;;;;;;5081074;28;20006;-66
2022/05/17 04:36:15;;;;;;;;;;;12.70;99.90;;;;;;5081684;28;19924;-66
2022/05/17 04:38:41;;;;;;;;;;;12.80;99.90;;;;;;5076463;28;19936;-66
2022/05/17 04:41:06;;;;;;;;;;;12.90;99.90;;;;;;5078667;28;19928;-65
2022/05/17 04:43:32;;;;;;;;;;;13.00;99.90;;;;;;5074112;28;19924;-66
2022/05/17 04:45:57;;;;;;;;;;;13.00;99.90;;;;;;5070406;28;19920;-66
2022/05/17 04:48:24;;;;;;;;;;;13.40;99.90;;;;;;5075593;28;20394;-66
2022/05/17 04:50:50;;;;;;;;;;;13.40;99.90;;;;;;5104822;28;20417;-65
2022/05/17 04:53:16;;;;;;;;;;;13.30;99.90;;;;;;5090681;28;19920;-66
2022/05/17 04:55:41;;;;;;;;;;;13.60;99.90;;;;;;5072074;28;19924;-65
2022/05/17 04:58:07;;;;;;;;;;;13.70;99.90;;;;;;5078680;28;19987;-66
2022/05/17 05:00:33;;;;;;;;;;;13.50;99.90;;;;;;5075745;28;19928;-66
2022/05/17 05:02:58;;;;;;;;;;;13.70;99.90;;;;;;5085257;28;19920;-65
2022/05/17 05:05:24;;;;;;;;;;;13.90;99.90;;;;;;5088022;28;19920;-65
2022/05/17 05:07:49;;;;;;;;;;;13.70;99.90;;;;;;5074100;28;20375;-65
2022/05/17 05:10:15;;;;;;;;;;;14.10;99.90;;;;;;5078038;28;19947;-66
2022/05/17 05:12:41;;;;;;;;;;;13.90;99.90;;;;;;5086874;28;19959;-65
2022/05/17 05:15:07;;;;;;;;;;;14.00;99.90;;;;;;5076876;28;19924;-65
2022/05/17 05:17:33;;;;;;;;;;;14.10;99.90;;;;;;5080144;28;19946;-65
2022/05/17 05:19:59;;;;;;;;;;;13.90;99.90;;;;;;5086034;28;20388;-65
2022/05/17 05:22:25;;;;;;;;;;;14.00;99.90;;;;;;5080254;28;20011;-65
2022/05/17 05:24:51;;;;;;;;;;;14.30;99.90;;;;;;5083533;28;19924;-64
2022/05/17 05:27:16;;;;;;;;;;;14.00;99.90;;;;;;5089392;28;19924;-65
2022/05/17 05:29:42;;;;;;;;;;;14.10;99.90;;;;;;5086852;28;19928;-64
2022/05/17 05:32:08;;;;;;;;;;;14.40;99.90;;;;;;5090843;28;20439;-64
2022/05/17 05:34:34;;;;;;;;;;;14.30;99.90;;;;;;5094740;28;19927;-64
2022/05/17 05:37:00;;;;;;;;;;;14.50;99.90;;;;;;5089188;28;19975;-64
2022/05/17 05:39:25;;;;;;;;;;;14.30;99.90;;;;;;5091704;28;19963;-64
2022/05/17 05:41:52;;;;;;;;;;;14.40;99.90;;;;;;5081800;28;20064;-64
2022/05/17 05:44:18;;;;;;;;;;;14.30;99.90;;;;;;5093305;28;19927;-64
2022/05/17 05:46:44;;;;;;;;;;;14.30;99.90;;;;;;5082536;28;20295;-64
2022/05/17 05:49:10;;;;;;;;;;;14.40;99.90;;;;;;5083811;28;19920;-63
2022/05/17 05:51:36;;;;;;;;;;;14.60;99.90;;;;;;5086495;28;20053;-63
2022/05/17 05:54:02;;;;;;;;;;;14.70;99.90;;;;;;5077764;28;20276;-63
2022/05/17 05:56:27;;;;;;;;;;;15.10;99.90;;;;;;5072801;28;19928;-63
2022/05/17 05:58:53;;;;;;;;;;;15.20;99.90;;;;;;5083899;28;20279;-63
2022/05/17 06:01:18;;;;;;;;;;;15.30;99.90;;;;;;5078385;28;19990;-63
2022/05/17 06:03:44;;;;;;;;;;;15.60;99.90;;;;;;5080468;28;19935;-63
2022/05/17 06:06:09;;;;;;;;;;;15.90;99.90;;;;;;5086452;28;20629;-63
2022/05/17 06:08:35;;;;;;;;;;;16.00;99.90;;;;;;5091578;28;19920;-63
2022/05/17 06:11:01;;;;;;;;;;;16.20;99.90;;;;;;5081565;28;19924;-63
2022/05/17 06:13:27;;;;;;;;;;;16.30;99.90;;;;;;5083419;28;19982;-62
2022/05/17 06:15:53;;;;;;;;;;;16.20;99.90;;;;;;5076810;28;19928;-62
2022/05/17 06:18:18;;;;;;;;;;;16.40;99.90;;;;;;5089587;28;19932;-62
2022/05/17 06:20:48;;;;;;;;;;;16.40;99.90;;;;;;5081727;28;19927;-63
2022/05/17 06:23:15;;;;;;;;;;;16.60;99.90;;;;;;5085154;28;19924;-63
2022/05/17 06:25:40;;;;;;;;;;;16.60;99.90;;;;;;5076127;28;19920;-62
2022/05/17 06:28:06;;;;;;;;;;;16.80;99.90;;;;;;5073304;28;19928;-63
2022/05/17 06:30:31;;;;;;;;;;;16.90;99.90;;;;;;5076151;28;19927;-63
2022/05/17 06:32:57;;;;;;;;;;;17.00;99.90;;;;;;5084135;28;19966;-62
2022/05/17 06:35:22;;;;;;;;;;;17.20;99.90;;;;;;5090695;28;20778;-63
2022/05/17 06:37:48;;;;;;;;;;;17.20;99.90;;;;;;5094876;28;19939;-62
2022/05/17 06:40:13;;;;;;;;;;;17.40;99.90;;;;;;5070441;28;19931;-63
2022/05/17 06:42:39;;;;;;;;;;;17.30;99.90;;;;;;5072061;28;20608;-63
2022/05/17 06:45:05;;;;;;;;;;;17.60;99.90;;;;;;5076691;28;19920;-63
2022/05/17 06:47:30;;;;;;;;;;;17.80;99.90;;;;;;5088950;28;20010;-63
2022/05/17 06:49:55;;;;;;;;;;;17.80;99.90;;;;;;5077874;28;19921;-63
2022/05/17 06:52:26;;;;;;;;;;;17.80;99.90;;;;;;5075794;28;19924;-63
2022/05/17 06:54:51;;;;;;;;;;;17.90;98.10;;;;;;5082150;28;19974;-62
2022/05/17 06:57:17;;;;;;;;;;;18.00;99.00;;;;;;5083692;28;19924;-62
2022/05/17 06:59:43;;;;;;;;;;;18.30;98.60;;;;;;5076596;28;20027;-62
2022/05/17 07:02:09;;;;;;;;;;;18.50;99.30;;;;;;5084509;28;20303;-63
2022/05/17 07:04:35;;;;;;;;;;;18.60;97.20;;;;;;5087732;28;19928;-63
2022/05/17 07:07:01;;;;;;;;;;;18.70;96.70;;;;;;5082484;28;19920;-63
2022/05/17 07:09:27;;;;;;;;;;;18.90;95.60;;;;;;5081385;28;20011;-63
2022/05/17 07:14:39;;;;;;;;;;;19.30;94.30;;;;;;5071620;28;20360;-63
2022/05/17 07:17:12;;;;;;;;;;;19.40;91.70;;;;;;5083620;28;20015;-63
2022/05/17 07:19:38;;;;;;;;;;;19.60;93.50;;;;;;5072965;28;19943;-63
2022/05/17 07:22:05;;;;;;;;;;;19.90;94.00;;;;;;5084755;28;19928;-63
2022/05/17 07:24:31;;;;;;;;;;;20.10;91.80;;;;;;5071630;28;19924;-64
2022/05/17 07:26:57;;;;;;;;;;;20.20;87.80;;;;;;5083105;28;20397;-63
2022/05/17 07:29:22;;;;;;;;;;;20.10;86.70;;;;;;5070375;28;19929;-63
2022/05/17 07:31:48;;;;;;;;;;;20.10;81.80;;;;;;5080044;28;19959;-63
2022/05/17 07:34:13;;;;;;;;;;;20.40;89.70;;;;;;5073708;28;19924;-64
2022/05/17 07:36:39;;;;;;;;;;;20.50;84.40;;;;;;5083579;28;20368;-64
2022/05/17 07:39:06;;;;;;;;;;;20.60;88.00;;;;;;5089409;28;20365;-64
2022/05/17 07:41:31;;;;;;;;;;;20.70;90.40;;;;;;5078884;28;20338;-63
2022/05/17 07:43:57;;;;;;;;;;;20.70;86.00;;;;;;5070622;28;19924;-64
2022/05/17 07:46:23;;;;;;;;;;;20.60;79.40;;;;;;5071354;28;19932;-64
2022/05/17 07:48:48;;;;;;;;;;;20.70;78.60;;;;;;5087369;28;19920;-64
2022/05/17 07:51:14;;;;;;;;;;;20.80;82.30;;;;;;5085001;28;19920;-64
2022/05/17 07:53:39;;;;;;;;;;;20.90;84.20;;;;;;5086676;28;19935;-64
2022/05/17 07:56:05;;;;;;;;;;;20.70;78.50;;;;;;5090656;28;20405;-64
2022/05/17 07:58:31;;;;;;;;;;;21.00;82.30;;;;;;5089930;28;19924;-64
2022/05/17 08:00:56;;;;;;;;;;;21.10;80.10;;;;;;5087935;28;19930;-64
2022/05/17 08:03:22;;;;;;;;;;;21.40;80.20;;;;;;5081877;28;19931;-64
2022/05/17 08:05:49;;;;;;;;;;;21.60;76.70;;;;;;5079060;28;19926;-64
2022/05/17 08:08:15;;;;;;;;;;;21.90;79.10;;;;;;5091149;28;19920;-64
2022/05/17 08:10:40;;;;;;;;;;;22.20;77.60;;;;;;5083240;28;19930;-64
2022/05/17 08:13:07;;;;;;;;;;;22.50;75.80;;;;;;5078389;28;20388;-64
2022/05/17 08:15:33;;;;;;;;;;;22.40;76.20;;;;;;5085761;28;19924;-64
2022/05/17 08:17:59;;;;;;;;;;;22.80;72.60;;;;;;5080095;28;19943;-65
2022/05/17 08:20:24;;;;;;;;;;;22.60;72.40;;;;;;5088006;28;19920;-64
2022/05/17 08:22:50;;;;;;;;;;;22.70;71.30;;;;;;5088639;28;19928;-64
2022/05/17 08:28:01;;;;;;;;;;;23.00;70.10;;;;;;5083572;28;19923;-64
2022/05/17 08:30:28;;;;;;;;;;;23.20;70.90;;;;;;5084744;28;19974;-64
2022/05/17 08:35:42;;;;;;;;;;;23.40;66.40;;;;;;5076024;28;20010;-65
2022/05/17 08:38:09;;;;;;;;;;;23.40;64.40;;;;;;5084003;28;19928;-64
2022/05/17 08:40:45;;;;;;;;;;;23.60;61.30;;;;;;5082760;28;19924;-64
2022/05/17 08:43:20;;;;;;;;;;;23.60;61.40;;;;;;5082957;28;20296;-64
2022/05/17 08:45:59;;;;;;;;;;;23.90;64.30;;;;;;5082138;28;19924;-65
2022/05/17 08:48:28;;;;;;;;;;;24.40;62.60;;;;;;5072675;28;20313;-64
2022/05/17 08:50:53;;;;;;;;;;;24.30;62.60;;;;;;5074957;28;19920;-65
2022/05/17 08:53:19;;;;;;;;;;;24.60;60.40;;;;;;5077759;28;19974;-65
2022/05/17 08:55:46;;;;;;;;;;;24.80;58.70;;;;;;5067889;28;19931;-64
2022/05/17 08:58:17;;;;;;;;;;;25.50;62.80;;;;;;5071221;28;19925;-64
2022/05/17 09:00:45;;;;;;;;;;;25.80;57.40;;;;;;5084796;28;19928;-65
2022/05/17 09:03:23;;;;;;;;;;;25.90;53.30;;;;;;5094409;28;19926;-65
2022/05/17 09:05:54;;;;;;;;;;;26.50;58.10;;;;;;5095765;28;19923;-65
2022/05/17 09:08:26;;;;;;;;;;;26.60;54.20;;;;;;5093989;28;20283;-65
2022/05/17 09:11:09;;;;;;;;;;;26.60;52.90;;;;;;5094843;28;20435;-66
2022/05/17 09:13:35;;;;;;;;;;;25.80;51.10;;;;;;5080777;28;20062;-65
2022/05/17 09:16:00;;;;;;;;;;;26.40;54.70;;;;;;5077052;28;20014;-65
2022/05/17 09:18:28;;;;;;;;;;;26.90;53.80;;;;;;5093511;28;19935;-65
2022/05/17 09:20:54;;;;;;;;;;;27.50;51.30;;;;;;5093356;28;19954;-65
2022/05/17 09:23:19;;;;;;;;;;;27.70;49.90;;;;;;5094266;28;20372;-65
2022/05/17 09:25:50;;;;;;;;;;;28.00;51.60;;;;;;5091645;28;19920;-65
2022/05/17 09:28:18;;;;;;;;;;;28.40;51.30;;;;;;5093700;28;19927;-65
2022/05/17 09:30:44;;;;;;;;;;;28.90;49.70;;;;;;5092906;28;19931;-65
2022/05/17 09:33:10;;;;;;;;;;;29.20;50.00;;;;;;5092903;28;19928;-65
2022/05/17 09:35:39;;;;;;;;;;;30.10;51.80;;;;;;5091044;28;19928;-66
2022/05/17 09:38:06;;;;;;;;;;;30.00;46.70;;;;;;5090920;28;19978;-64
2022/05/17 09:40:35;;;;;;;;;;;29.30;42.10;;;;;;5086489;28;20307;-65
2022/05/17 09:43:04;;;;;;;;;;;29.40;42.50;;;;;;5084639;28;19973;-63
2022/05/17 09:45:49;;;;;;;;;;;29.70;46.80;;;;;;5072727;28;19920;-63
2022/05/17 09:48:30;;;;;;;;;;;29.20;43.80;;;;;;5081304;28;20022;-63
2022/05/17 09:53:46;;;;;;;;;;;29.50;47.50;;;;;;5090355;28;20017;-63
2022/05/17 09:56:12;;;;;;;;;;;30.20;48.80;;;;;;5073008;28;19928;-63
2022/05/17 09:58:39;;;;;;;;;;;30.60;41.50;;;;;;5082505;28;19921;-64
2022/05/17 10:01:15;;;;;;;;;;;30.80;38.20;;;;;;5083437;28;19920;-64
2022/05/17 10:03:41;;;;;;;;;;;30.70;40.60;;;;;;5089036;28;19984;-63
2022/05/17 10:06:12;;;;;;;;;;;31.20;40.90;;;;;;5093337;28;20273;-62
2022/05/17 10:08:40;;;;;;;;;;;31.70;40.10;;;;;;5073056;28;19925;-63
2022/05/17 10:11:14;;;;;;;;;;;32.40;41.50;;;;;;5079436;28;20352;-63
2022/05/17 10:13:43;;;;;;;;;;;33.00;41.00;;;;;;5076880;28;19935;-63
2022/05/17 10:16:14;;;;;;;;;;;33.30;40.80;;;;;;5089658;28;19924;-64
2022/05/17 10:18:40;;;;;;;;;;;32.50;35.70;;;;;;5090186;28;19928;-63
2022/05/17 10:21:09;;;;;;;;;;;32.60;35.30;;;;;;5079639;28;19920;-63
2022/05/17 10:23:38;;;;;;;;;;;32.90;36.00;;;;;;5083109;28;19928;-63
2022/05/17 10:26:08;;;;;;;;;;;32.90;36.60;;;;;;5082269;28;20410;-63
2022/05/17 10:28:49;;;;;;;;;;;33.20;36.70;;;;;;5088251;28;19963;-62
2022/05/17 10:31:23;;;;;;;;;;;32.70;36.70;;;;;;5089985;28;19921;-63
2022/05/17 10:34:02;;;;;;;;;;;32.10;38.80;;;;;;5075323;28;19927;-63
2022/05/17 10:36:38;;;;;;;;;;;32.20;39.00;;;;;;5088580;28;19978;-63
2022/05/17 10:39:11;;;;;;;;;;;32.40;33.20;;;;;;5074074;28;19920;-63
2022/05/17 10:41:37;;;;;;;;;;;31.90;33.90;;;;;;5083539;28;19924;-63
2022/05/17 10:44:03;;;;;;;;;;;31.60;36.50;;;;;;5070283;28;19924;-62
2022/05/17 10:46:30;;;;;;;;;;;31.20;34.30;;;;;;5080476;28;19930;-62
2022/05/17 10:49:02;;;;;;;;;;;31.00;38.50;;;;;;5085496;28;19939;-62
2022/05/17 10:51:32;;;;;;;;;;;30.50;40.10;;;;;;5095967;28;20015;-63
2022/05/17 10:54:20;;;;;;;;;;;30.10;39.60;;;;;;5076373;28;20001;-64
2022/05/17 10:57:02;;;;;;;;;;;29.90;41.30;;;;;;5084771;28;19966;-64
2022/05/17 10:59:46;;;;;;;;;;;29.40;38.70;;;;;;5069981;28;20413;-64
2022/05/17 11:02:31;;;;;;;;;;;28.70;36.70;;;;;;5082620;28;19932;-64
2022/05/17 11:04:59;;;;;;;;;;;27.50;35.40;;;;;;5080722;28;19931;-65
2022/05/17 11:07:40;;;;;;;;;;;27.00;38.50;;;;;;5078885;28;19931;-64
2022/05/17 11:10:13;;;;;;;;;;;26.60;39.40;;;;;;5072387;28;19921;-64
2022/05/17 11:12:43;;;;;;;;;;;26.60;41.40;;;;;;5082798;28;19920;-63
2022/05/17 11:15:12;;;;;;;;;;;26.50;41.70;;;;;;5086580;28;19920;-64
2022/05/17 11:17:40;;;;;;;;;;;26.40;43.00;;;;;;5074713;28;20054;-63
2022/05/17 11:20:24;;;;;;;;;;;26.40;43.80;;;;;;5091546;28;19920;-64
2022/05/17 11:23:02;;;;;;;;;;;26.10;41.60;;;;;;5078689;28;20263;-64
2022/05/17 11:25:45;;;;;;;;;;;25.90;42.20;;;;;;5090453;28;19920;-64
2022/05/17 11:28:14;;;;;;;;;;;25.80;42.10;;;;;;5087815;28;19975;-64
2022/05/17 11:30:47;;;;;;;;;;;25.80;42.60;;;;;;5092721;28;19993;-63
2022/05/17 11:33:12;;;;;;;;;;;26.10;42.70;;;;;;5079862;28;19924;-64
2022/05/17 11:35:48;;;;;;;;;;;26.00;40.80;;;;;;5073847;28;19989;-64
2022/05/17 11:38:17;;;;;;;;;;;26.20;44.30;;;;;;5080368;28;19930;-63
2022/05/17 11:40:43;;;;;;;;;;;26.60;42.50;;;;;;5072833;28;20351;-64
2022/05/17 11:45:55;;;;;;;;;;;26.40;40.70;;;;;;5089383;28;20382;-63
2022/05/17 11:48:22;;;;;;;;;;;26.20;42.30;;;;;;5088435;28;19963;-63
2022/05/17 11:50:51;;;;;;;;;;;26.40;42.70;;;;;;5092491;28;19927;-63
2022/05/17 11:53:22;;;;;;;;;;;26.70;43.50;;;;;;5088218;28;19924;-63
2022/05/17 11:56:06;;;;;;;;;;;26.80;42.10;;;;;;5090116;28;19928;-64
2022/05/17 11:58:32;;;;;;;;;;;26.80;41.60;;;;;;5071933;28;20011;-63
2022/05/17 12:00:57;;;;;;;;;;;27.20;43.00;;;;;;5084627;28;20030;-63
2022/05/17 12:03:44;;;;;;;;;;;27.60;42.50;;;;;;5088247;28;19920;-64
2022/05/17 12:06:26;;;;;;;;;;;27.50;40.40;;;;;;5086782;28;19920;-64
2022/05/17 12:08:51;;;;;;;;;;;27.50;40.40;;;;;;5089417;28;20499;-64
2022/05/17 12:11:23;;;;;;;;;;;27.70;38.60;;;;;;5090637;28;19920;-63
2022/05/17 12:13:48;;;;;;;;;;;27.40;40.10;;;;;;5090299;28;19924;-63
2022/05/17 12:16:17;;;;;;;;;;;27.10;41.70;;;;;;5089092;28;19920;-64
2022/05/17 12:19:06;;;;;;;;;;;26.60;40.20;;;;;;5090090;28;20276;-64
2022/05/17 12:21:46;;;;;;;;;;;26.90;39.00;;;;;;5076119;28;19928;-66
2022/05/17 12:24:28;;;;;;;;;;;26.70;40.40;;;;;;5088161;28;19931;-64
2022/05/17 12:26:53;;;;;;;;;;;26.50;41.30;;;;;;5073405;28;19927;-64
2022/05/17 12:32:10;;;;;;;;;;;26.80;41.50;;;;;;5090701;28;19928;-64
2022/05/17 12:34:39;;;;;;;;;;;26.80;42.80;;;;;;5085768;28;19920;-65
2022/05/17 12:37:09;;;;;;;;;;;26.60;40.30;;;;;;5091534;28;20007;-65
2022/05/17 12:45:04;;;;;;;;;;;26.00;41.00;;;;;;5084964;28;19930;-65
2022/05/17 12:47:29;;;;;;;;;;;25.50;42.40;;;;;;5094613;28;20010;-65
2022/05/17 12:49:56;;;;;;;;;;;25.50;44.60;;;;;;5086917;28;19928;-65
2022/05/17 12:52:25;;;;;;;;;;;25.10;45.90;;;;;;5095703;28;19973;-65
2022/05/17 12:54:51;;;;;;;;;;;24.70;47.00;;;;;;5090386;28;19924;-64
2022/05/17 12:57:18;;;;;;;;;;;24.80;46.50;;;;;;5088908;28;20022;-65
2022/05/17 12:59:43;;;;;;;;;;;24.60;48.00;;;;;;5091575;28;19928;-64
2022/05/17 13:02:09;;;;;;;;;;;24.80;47.90;;;;;;5092129;28;19920;-64
2022/05/17 13:04:39;;;;;;;;;;;24.90;46.20;;;;;;5093698;28;19926;-65
2022/05/17 13:07:13;;;;;;;;;;;25.10;47.10;;;;;;5092080;28;20019;-64
2022/05/17 13:09:59;;;;;;;;;;;25.30;46.10;;;;;;5094861;28;19942;-65
2022/05/17 13:12:26;;;;;;;;;;;25.10;46.50;;;;;;5087487;28;19946;-65
2022/05/17 13:14:52;;;;;;;;;;;25.00;47.50;;;;;;5088481;28;19927;-65
2022/05/17 13:17:22;;;;;;;;;;;24.70;47.70;;;;;;5081102;28;20394;-64
2022/05/17 13:19:48;;;;;;;;;;;25.00;48.30;;;;;;5091856;28;20451;-65
2022/05/17 13:22:17;;;;;;;;;;;25.40;47.90;;;;;;5094600;28;19927;-65
2022/05/17 13:24:44;;;;;;;;;;;25.20;47.90;;;;;;5090804;28;19928;-65
2022/05/17 13:27:27;;;;;;;;;;;25.10;46.50;;;;;;5092009;28;19974;-64
2022/05/17 13:30:07;;;;;;;;;;;24.90;47.90;;;;;;5074864;28;20257;-65
2022/05/17 13:32:37;;;;;;;;;;;24.30;46.70;;;;;;5089300;28;19931;-64
2022/05/17 13:35:05;;;;;;;;;;;24.30;48.70;;;;;;5077925;28;19924;-65
2022/05/17 13:37:32;;;;;;;;;;;24.50;48.70;;;;;;5094611;28;20279;-65
2022/05/17 13:40:02;;;;;;;;;;;24.50;49.60;;;;;;5089481;28;19920;-65
2022/05/17 13:42:46;;;;;;;;;;;24.50;49.10;;;;;;5093228;28;19920;-65
2022/05/17 13:45:28;;;;;;;;;;;24.30;48.10;;;;;;5093304;28;19924;-64
2022/05/17 13:47:54;;;;;;;;;;;24.50;49.30;;;;;;5089334;28;19924;-65
2022/05/17 13:50:23;;;;;;;;;;;26.40;48.50;;;;;;5090668;28;20390;-65
2022/05/17 13:52:49;;;;;;;;;;;28.90;45.40;;;;;;5092080;28;19920;-65
2022/05/17 13:55:14;;;;;;;;;;;29.00;43.60;;;;;;5082654;28;19932;-66
2022/05/17 13:57:41;;;;;;;;;;;30.90;41.40;;;;;;5106220;28;19936;-65
2022/05/17 14:00:10;;;;;;;;;;;31.90;39.00;;;;;;5083097;28;19965;-66
2022/05/17 14:02:48;;;;;;;;;;;29.10;37.50;;;;;;5086609;28;19943;-65
2022/05/17 14:05:36;;;;;;;;;;;28.40;40.60;;;;;;5079623;28;20027;-66
2022/05/17 14:13:30;;;;;;;;;;;26.20;44.20;;;;;;5076907;28;19999;-65
2022/05/17 14:15:56;;;;;;;;;;;26.00;44.60;;;;;;5081322;28;20018;-65
2022/05/17 14:18:26;;;;;;;;;;;25.80;44.70;;;;;;5092274;28;19962;-65
2022/05/17 14:20:52;;;;;;;;;;;26.80;45.90;;;;;;5086032;28;19924;-65
2022/05/17 14:23:18;;;;;;;;;;;27.00;47.20;;;;;;5092702;28;19931;-65
2022/05/17 14:25:43;;;;;;;;;;;26.50;46.10;;;;;;5092602;28;19962;-65
2022/05/17 14:28:09;;;;;;;;;;;26.00;46.10;;;;;;5086475;28;19951;-65
2022/05/17 14:30:36;;;;;;;;;;;25.70;46.10;;;;;;5088562;28;19962;-64
2022/05/17 14:33:02;;;;;;;;;;;25.70;46.10;;;;;;5088084;28;20368;-65
2022/05/17 14:35:30;;;;;;;;;;;25.60;46.00;;;;;;5088867;28;19947;-65
2022/05/17 14:37:56;;;;;;;;;;;25.70;46.40;;;;;;5079131;28;19920;-64
2022/05/17 14:40:21;;;;;;;;;;;25.50;47.20;;;;;;5090146;28;19924;-65
2022/05/17 14:42:47;;;;;;;;;;;25.00;47.80;;;;;;5093825;28;19920;-65
2022/05/17 14:45:12;;;;;;;;;;;24.80;49.40;;;;;;5092900;28;20252;-65
2022/05/17 14:47:41;;;;;;;;;;;24.60;50.20;;;;;;5093238;28;19924;-64
2022/05/17 14:50:08;;;;;;;;;;;24.50;49.50;;;;;;5080818;28;20036;-64
2022/05/17 14:52:33;;;;;;;;;;;24.30;49.20;;;;;;5081049;28;19924;-64